sensor_id;sensor_type;location;lat;lon;timestamp;temperature;humidity
35804;DHT22;21924;51.934;7.414;2023-07-20T00:32:01;15.50;99.90
35804;DHT22;21924;51.934;7.414;2023-07-20T02:10:25;15.60;99.90
35804;DHT22;21924;51.934;7.414;2023-07-20T02:26:43;15.40;99.90
35804;DHT22;21924;51.934;7.414;2023-07-20T02:29:34;15.40;99.90
35804;DHT22;21924;51.934;7.414;2023-07-20T03:39:05;15.00;99.90
35804;DHT22;21924;51.934;7.414;2023-07-20T03:52:01;15.10;99.90
35804;DHT22;21924;51.934;7.414;2023-07-20T04:32:03;14.90;99.90
35804;DHT22;21924;51.934;7.414;2023-07-20T04:38:21;14.90;99.90
35804;DHT22;21924;51.934;7.414;2023-07-20T04:50:58;15.10;99.90
35804;DHT22;21924;51.934;7.414;2023-07-20T05:37:18;15.00;99.90
35804;DHT22;21924;51.934;7.414;2023-07-20T05:46:46;15.70;99.90
35804;DHT22;21924;51.934;7.414;2023-07-20T05:53:01;15.90;99.90
35804;DHT22;21924;51.934;7.414;2023-07-20T06:26:02;15.70;99.90
35804;DHT22;21924;51.934;7.414;2023-07-20T06:28:56;15.70;99.90
35804;DHT22;21924;51.934;7.414;2023-07-20T06:31:43;15.70;99.90
35804;DHT22;21924;51.934;7.414;2023-07-20T07:02:10;16.90;99.90
35804;DHT22;21924;51.934;7.414;2023-07-20T07:28:30;17.30;99.90
35804;DHT22;21924;51.934;7.414;2023-07-20T07:35:02;17.30;99.90
35804;DHT22;21924;51.934;7.414;2023-07-20T07:52:37;17.80;99.90
35804;DHT22;21924;51.934;7.414;2023-07-20T07:55:41;17.90;99.90
35804;DHT22;21924;51.934;7.414;2023-07-20T08:05:38;18.30;99.90
35804;DHT22;21924;51.934;7.414;2023-07-20T08:08:34;18.40;99.90
35804;DHT22;21924;51.934;7.414;2023-07-20T08:11:27;18.40;99.90
35804;DHT22;21924;51.934;7.414;2023-07-20T08:39:09;18.40;99.90
35804;DHT22;21924;51.934;7.414;2023-07-20T08:41:56;18.50;99.90
35804;DHT22;21924;51.934;7.414;2023-07-20T08:44:43;18.70;99.90
35804;DHT22;21924;51.934;7.414;2023-07-20T08:47:29;19.00;99.90
35804;DHT22;21924;51.934;7.414;2023-07-20T08:50:13;19.30;99.90
35804;DHT22;21924;51.934;7.414;2023-07-20T08:52:58;19.10;99.90
35804;DHT22;21924;51.934;7.414;2023-07-20T08:55:44;18.80;99.90
35804;DHT22;21924;51.934;7.414;2023-07-20T08:58:28;18.30;99.90
35804;DHT22;21924;51.934;7.414;2023-07-20T09:01:14;18.20;99.90
35804;DHT22;21924;51.934;7.414;2023-07-20T09:03:58;18.40;99.90
35804;DHT22;21924;51.934;7.414;2023-07-20T09:06:44;18.50;99.90
35804;DHT22;21924;51.934;7.414;2023-07-20T09:09:31;18.90;99.90
35804;DHT22;21924;51.934;7.414;2023-07-20T09:12:15;18.90;99.90
35804;DHT22;21924;51.934;7.414;2023-07-20T09:14:59;19.20;99.90
35804;DHT22;21924;51.934;7.414;2023-07-20T09:17:45;19.50;99.90
35804;DHT22;21924;51.934;7.414;2023-07-20T09:20:31;19.50;99.90
35804;DHT22;21924;51.934;7.414;2023-07-20T09:23:16;19.40;99.90
35804;DHT22;21924;51.934;7.414;2023-07-20T09:26:00;19.20;99.90
35804;DHT22;21924;51.934;7.414;2023-07-20T09:28:49;19.00;99.90
35804;DHT22;21924;51.934;7.414;2023-07-20T09:31:36;19.20;99.90
35804;DHT22;21924;51.934;7.414;2023-07-20T09:34:21;19.60;99.90
35804;DHT22;21924;51.934;7.414;2023-07-20T09:37:05;20.10;99.90
35804;DHT22;21924;51.934;7.414;2023-07-20T09:39:51;20.50;99.90
35804;DHT22;21924;51.934;7.414;2023-07-20T09:42:38;20.90;99.90
35804;DHT22;21924;51.934;7.414;2023-07-20T09:45:22;20.60;99.90
35804;DHT22;21924;51.934;7.414;2023-07-20T09:48:06;20.30;99.90
35804;DHT22;21924;51.934;7.414;2023-07-20T09:50:52;19.80;99.90
35804;DHT22;21924;51.934;7.414;2023-07-20T09:53:37;19.80;99.90
35804;DHT22;21924;51.934;7.414;2023-07-20T09:56:21;19.70;99.90
35804;DHT22;21924;51.934;7.414;2023-07-20T10:02:20;20.30;99.90
35804;DHT22;21924;51.934;7.414;2023-07-20T10:05:05;20.30;99.90
35804;DHT22;21924;51.934;7.414;2023-07-20T10:07:54;20.60;99.90
35804;DHT22;21924;51.934;7.414;2023-07-20T10:10:41;20.90;99.90
35804;DHT22;21924;51.934;7.414;2023-07-20T10:13:27;21.30;99.90
35804;DHT22;21924;51.934;7.414;2023-07-20T10:16:18;21.40;99.90
35804;DHT22;21924;51.934;7.414;2023-07-20T10:19:13;21.80;99.90
35804;DHT22;21924;51.934;7.414;2023-07-20T10:22:03;22.00;99.90
35804;DHT22;21924;51.934;7.414;2023-07-20T10:24:49;22.20;99.90
35804;DHT22;21924;51.934;7.414;2023-07-20T10:27:33;22.20;99.90
35804;DHT22;21924;51.934;7.414;2023-07-20T10:30:17;22.10;99.90
35804;DHT22;21924;51.934;7.414;2023-07-20T10:33:03;22.00;99.90
35804;DHT22;21924;51.934;7.414;2023-07-20T10:41:29;22.20;99.90
35804;DHT22;21924;51.934;7.414;2023-07-20T10:44:13;22.40;99.90
35804;DHT22;21924;51.934;7.414;2023-07-20T10:47:06;22.40;99.90
35804;DHT22;21924;51.934;7.414;2023-07-20T10:49:58;22.50;99.90
35804;DHT22;21924;51.934;7.414;2023-07-20T10:52:49;22.60;99.90
35804;DHT22;21924;51.934;7.414;2023-07-20T10:55:47;22.60;99.90
35804;DHT22;21924;51.934;7.414;2023-07-20T10:58:35;22.60;99.90
35804;DHT22;21924;51.934;7.414;2023-07-20T11:01:19;23.00;99.90
35804;DHT22;21924;51.934;7.414;2023-07-20T11:04:04;22.90;99.90
35804;DHT22;21924;51.934;7.414;2023-07-20T11:06:55;23.20;99.90
35804;DHT22;21924;51.934;7.414;2023-07-20T11:09:39;23.10;99.90
35804;DHT22;21924;51.934;7.414;2023-07-20T11:12:23;22.70;99.90
35804;DHT22;21924;51.934;7.414;2023-07-20T11:15:07;22.30;99.90
35804;DHT22;21924;51.934;7.414;2023-07-20T11:17:52;21.90;99.90
35804;DHT22;21924;51.934;7.414;2023-07-20T11:20:37;21.60;99.90
35804;DHT22;21924;51.934;7.414;2023-07-20T11:23:21;21.30;99.90
35804;DHT22;21924;51.934;7.414;2023-07-20T11:26:06;21.50;99.90
35804;DHT22;21924;51.934;7.414;2023-07-20T11:28:50;21.90;99.90
35804;DHT22;21924;51.934;7.414;2023-07-20T11:31:41;22.30;99.90
35804;DHT22;21924;51.934;7.414;2023-07-20T11:34:32;22.60;99.90
35804;DHT22;21924;51.934;7.414;2023-07-20T11:37:18;22.80;99.90
35804;DHT22;21924;51.934;7.414;2023-07-20T11:40:02;22.90;99.90
35804;DHT22;21924;51.934;7.414;2023-07-20T11:42:47;23.30;99.90
35804;DHT22;21924;51.934;7.414;2023-07-20T11:45:31;23.70;99.90
35804;DHT22;21924;51.934;7.414;2023-07-20T11:48:17;23.90;99.90
35804;DHT22;21924;51.934;7.414;2023-07-20T11:51:01;24.10;99.90
35804;DHT22;21924;51.934;7.414;2023-07-20T11:53:45;23.50;99.90
35804;DHT22;21924;51.934;7.414;2023-07-20T11:56:32;23.00;99.90
35804;DHT22;21924;51.934;7.414;2023-07-20T11:59:18;23.50;99.90
35804;DHT22;21924;51.934;7.414;2023-07-20T12:02:02;24.10;99.90
35804;DHT22;21924;51.934;7.414;2023-07-20T12:04:47;24.40;99.90
35804;DHT22;21924;51.934;7.414;2023-07-20T12:07:34;24.40;99.90
35804;DHT22;21924;51.934;7.414;2023-07-20T12:10:25;24.80;99.90
35804;DHT22;21924;51.934;7.414;2023-07-20T12:13:10;25.40;99.90
35804;DHT22;21924;51.934;7.414;2023-07-20T12:15:59;25.60;99.90
35804;DHT22;21924;51.934;7.414;2023-07-20T12:18:51;25.30;99.90
35804;DHT22;21924;51.934;7.414;2023-07-20T12:21:42;25.30;99.90
35804;DHT22;21924;51.934;7.414;2023-07-20T12:24:28;25.30;99.90
35804;DHT22;21924;51.934;7.414;2023-07-20T12:27:13;24.80;99.90
35804;DHT22;21924;51.934;7.414;2023-07-20T12:30:05;24.70;99.90
35804;DHT22;21924;51.934;7.414;2023-07-20T12:32:50;24.80;99.90
35804;DHT22;21924;51.934;7.414;2023-07-20T12:35:34;24.40;99.90
35804;DHT22;21924;51.934;7.414;2023-07-20T12:38:20;24.00;99.90
35804;DHT22;21924;51.934;7.414;2023-07-20T12:41:04;24.00;99.90
35804;DHT22;21924;51.934;7.414;2023-07-20T12:43:48;24.30;99.90
35804;DHT22;21924;51.934;7.414;2023-07-20T12:46:33;24.70;99.80
35804;DHT22;21924;51.934;7.414;2023-07-20T12:49:20;25.30;99.60
35804;DHT22;21924;51.934;7.414;2023-07-20T12:52:07;25.20;98.30
35804;DHT22;21924;51.934;7.414;2023-07-20T12:54:53;25.40;99.90
35804;DHT22;21924;51.934;7.414;2023-07-20T12:57:37;25.50;98.60
35804;DHT22;21924;51.934;7.414;2023-07-20T13:00:22;25.40;97.90
35804;DHT22;21924;51.934;7.414;2023-07-20T13:03:07;25.30;97.50
35804;DHT22;21924;51.934;7.414;2023-07-20T13:05:52;24.80;97.00
35804;DHT22;21924;51.934;7.414;2023-07-20T13:08:36;24.90;97.80
35804;DHT22;21924;51.934;7.414;2023-07-20T13:11:21;24.80;96.50
35804;DHT22;21924;51.934;7.414;2023-07-20T13:14:06;24.30;97.30
35804;DHT22;21924;51.934;7.414;2023-07-20T13:16:50;23.80;98.90
35804;DHT22;21924;51.934;7.414;2023-07-20T13:19:34;24.30;98.60
35804;DHT22;21924;51.934;7.414;2023-07-20T13:22:27;25.00;98.10
35804;DHT22;21924;51.934;7.414;2023-07-20T13:25:12;25.60;97.40
35804;DHT22;21924;51.934;7.414;2023-07-20T13:27:57;25.60;97.40
35804;DHT22;21924;51.934;7.414;2023-07-20T13:30:41;26.00;97.90
35804;DHT22;21924;51.934;7.414;2023-07-20T13:33:26;25.90;94.90
35804;DHT22;21924;51.934;7.414;2023-07-20T13:36:10;26.00;96.00
35804;DHT22;21924;51.934;7.414;2023-07-20T13:38:54;26.50;95.90
35804;DHT22;21924;51.934;7.414;2023-07-20T13:41:38;26.30;95.90
35804;DHT22;21924;51.934;7.414;2023-07-20T13:44:22;25.80;96.30
35804;DHT22;21924;51.934;7.414;2023-07-20T13:47:06;25.30;96.40
35804;DHT22;21924;51.934;7.414;2023-07-20T13:49:52;25.00;96.30
35804;DHT22;21924;51.934;7.414;2023-07-20T13:52:36;24.70;96.70
35804;DHT22;21924;51.934;7.414;2023-07-20T13:55:20;24.20;96.80
35804;DHT22;21924;51.934;7.414;2023-07-20T13:58:04;24.30;97.20
35804;DHT22;21924;51.934;7.414;2023-07-20T14:00:48;24.50;96.20
35804;DHT22;21924;51.934;7.414;2023-07-20T14:03:36;24.50;96.20
35804;DHT22;21924;51.934;7.414;2023-07-20T14:06:24;24.80;95.50
35804;DHT22;21924;51.934;7.414;2023-07-20T14:09:08;25.10;95.20
35804;DHT22;21924;51.934;7.414;2023-07-20T14:11:52;24.80;96.50
35804;DHT22;21924;51.934;7.414;2023-07-20T14:14:37;24.40;96.00
35804;DHT22;21924;51.934;7.414;2023-07-20T14:17:22;24.10;95.90
35804;DHT22;21924;51.934;7.414;2023-07-20T14:20:07;24.10;96.60
35804;DHT22;21924;51.934;7.414;2023-07-20T14:22:52;24.10;96.50
35804;DHT22;21924;51.934;7.414;2023-07-20T14:25:36;24.70;95.20
35804;DHT22;21924;51.934;7.414;2023-07-20T14:28:20;25.10;95.30
35804;DHT22;21924;51.934;7.414;2023-07-20T14:31:05;25.70;94.20
35804;DHT22;21924;51.934;7.414;2023-07-20T14:33:50;27.00;94.00
35804;DHT22;21924;51.934;7.414;2023-07-20T14:36:36;27.10;93.10
35804;DHT22;21924;51.934;7.414;2023-07-20T14:39:22;26.50;93.00
35804;DHT22;21924;51.934;7.414;2023-07-20T14:42:07;26.70;92.60
35804;DHT22;21924;51.934;7.414;2023-07-20T14:44:51;27.00;92.80
35804;DHT22;21924;51.934;7.414;2023-07-20T14:47:35;27.50;93.30
35804;DHT22;21924;51.934;7.414;2023-07-20T14:50:20;28.10;93.50
35804;DHT22;21924;51.934;7.414;2023-07-20T14:53:04;28.10;93.20
35804;DHT22;21924;51.934;7.414;2023-07-20T14:55:48;28.50;94.20
35804;DHT22;21924;51.934;7.414;2023-07-20T14:58:32;28.40;94.10
35804;DHT22;21924;51.934;7.414;2023-07-20T15:01:16;27.50;93.40
35804;DHT22;21924;51.934;7.414;2023-07-20T15:04:02;26.40;94.20
35804;DHT22;21924;51.934;7.414;2023-07-20T15:06:46;25.10;94.90
35804;DHT22;21924;51.934;7.414;2023-07-20T15:09:33;24.70;96.20
35804;DHT22;21924;51.934;7.414;2023-07-20T15:12:17;24.50;96.40
35804;DHT22;21924;51.934;7.414;2023-07-20T15:17:53;24.90;96.30
35804;DHT22;21924;51.934;7.414;2023-07-20T15:20:38;25.10;96.40
35804;DHT22;21924;51.934;7.414;2023-07-20T15:23:24;25.10;94.90
35804;DHT22;21924;51.934;7.414;2023-07-20T15:26:09;25.10;94.20
35804;DHT22;21924;51.934;7.414;2023-07-20T15:28:57;25.50;94.50
35804;DHT22;21924;51.934;7.414;2023-07-20T15:31:42;26.00;94.10
35804;DHT22;21924;51.934;7.414;2023-07-20T15:34:27;26.40;93.00
35804;DHT22;21924;51.934;7.414;2023-07-20T15:40:46;26.20;93.70
35804;DHT22;21924;51.934;7.414;2023-07-20T15:43:31;26.60;93.70
35804;DHT22;21924;51.934;7.414;2023-07-20T15:49:02;28.70;92.00
35804;DHT22;21924;51.934;7.414;2023-07-20T15:51:51;29.10;91.00
35804;DHT22;21924;51.934;7.414;2023-07-20T15:54:41;29.10;90.90
35804;DHT22;21924;51.934;7.414;2023-07-20T15:57:39;28.50;90.80
35804;DHT22;21924;51.934;7.414;2023-07-20T16:00:25;27.10;91.90
35804;DHT22;21924;51.934;7.414;2023-07-20T16:03:09;26.10;92.80
35804;DHT22;21924;51.934;7.414;2023-07-20T16:05:55;25.20;92.30
35804;DHT22;21924;51.934;7.414;2023-07-20T16:08:39;24.60;93.80
35804;DHT22;21924;51.934;7.414;2023-07-20T16:11:23;24.30;94.60
35804;DHT22;21924;51.934;7.414;2023-07-20T16:14:08;24.10;94.60
35804;DHT22;21924;51.934;7.414;2023-07-20T16:16:52;23.80;94.90
35804;DHT22;21924;51.934;7.414;2023-07-20T16:19:37;23.60;95.40
35804;DHT22;21924;51.934;7.414;2023-07-20T16:22:21;23.40;96.00
35804;DHT22;21924;51.934;7.414;2023-07-20T16:25:11;23.20;95.80
35804;DHT22;21924;51.934;7.414;2023-07-20T16:27:55;23.40;96.10
35804;DHT22;21924;51.934;7.414;2023-07-20T16:30:39;23.50;95.80
35804;DHT22;21924;51.934;7.414;2023-07-20T16:33:25;23.40;96.00
35804;DHT22;21924;51.934;7.414;2023-07-20T16:36:14;23.40;96.60
35804;DHT22;21924;51.934;7.414;2023-07-20T16:39:01;23.30;96.30
35804;DHT22;21924;51.934;7.414;2023-07-20T16:41:45;23.20;96.40
35804;DHT22;21924;51.934;7.414;2023-07-20T16:44:29;23.00;97.00
35804;DHT22;21924;51.934;7.414;2023-07-20T16:47:13;22.80;96.70
35804;DHT22;21924;51.934;7.414;2023-07-20T16:49:57;22.70;97.60
35804;DHT22;21924;51.934;7.414;2023-07-20T16:52:42;22.60;97.30
35804;DHT22;21924;51.934;7.414;2023-07-20T16:55:26;22.50;98.00
35804;DHT22;21924;51.934;7.414;2023-07-20T17:01:32;22.80;97.80
35804;DHT22;21924;51.934;7.414;2023-07-20T17:04:18;22.70;97.80
35804;DHT22;21924;51.934;7.414;2023-07-20T17:07:08;22.90;98.10
35804;DHT22;21924;51.934;7.414;2023-07-20T17:09:53;23.60;97.20
35804;DHT22;21924;51.934;7.414;2023-07-20T17:12:39;24.00;97.10
35804;DHT22;21924;51.934;7.414;2023-07-20T17:15:30;24.70;96.40
35804;DHT22;21924;51.934;7.414;2023-07-20T17:18:21;25.60;95.10
35804;DHT22;21924;51.934;7.414;2023-07-20T17:21:12;26.30;94.30
35804;DHT22;21924;51.934;7.414;2023-07-20T17:24:42;26.50;93.70
35804;DHT22;21924;51.934;7.414;2023-07-20T17:27:27;26.70;94.00
35804;DHT22;21924;51.934;7.414;2023-07-20T17:30:30;26.90;93.70
35804;DHT22;21924;51.934;7.414;2023-07-20T17:33:14;25.80;94.80
35804;DHT22;21924;51.934;7.414;2023-07-20T17:36:00;24.80;94.80
35804;DHT22;21924;51.934;7.414;2023-07-20T17:38:45;24.10;95.60
35804;DHT22;21924;51.934;7.414;2023-07-20T17:41:31;23.40;96.70
35804;DHT22;21924;51.934;7.414;2023-07-20T17:44:15;23.10;97.10
35804;DHT22;21924;51.934;7.414;2023-07-20T17:47:00;22.60;97.70
35804;DHT22;21924;51.934;7.414;2023-07-20T17:49:59;22.30;98.10
35804;DHT22;21924;51.934;7.414;2023-07-20T17:53:10;22.30;98.50
35804;DHT22;21924;51.934;7.414;2023-07-20T17:56:13;22.10;98.20
35804;DHT22;21924;51.934;7.414;2023-07-20T17:59:22;21.90;98.60
35804;DHT22;21924;51.934;7.414;2023-07-20T18:02:11;21.80;99.70
35804;DHT22;21924;51.934;7.414;2023-07-20T18:04:59;21.60;99.40
35804;DHT22;21924;51.934;7.414;2023-07-20T18:08:07;21.50;99.90
35804;DHT22;21924;51.934;7.414;2023-07-20T18:10:52;21.40;99.70
35804;DHT22;21924;51.934;7.414;2023-07-20T18:17:18;21.10;99.90
35804;DHT22;21924;51.934;7.414;2023-07-20T18:20:05;21.10;99.90
35804;DHT22;21924;51.934;7.414;2023-07-20T18:22:50;21.00;99.90
35804;DHT22;21924;51.934;7.414;2023-07-20T18:25:38;21.00;99.90
35804;DHT22;21924;51.934;7.414;2023-07-20T18:28:22;21.00;99.90
35804;DHT22;21924;51.934;7.414;2023-07-20T18:38:38;21.00;99.90
35804;DHT22;21924;51.934;7.414;2023-07-20T18:44:59;20.70;99.90
35804;DHT22;21924;51.934;7.414;2023-07-20T18:47:53;20.50;99.90
35804;DHT22;21924;51.934;7.414;2023-07-20T18:50:38;20.40;99.90
35804;DHT22;21924;51.934;7.414;2023-07-20T18:53:23;20.40;99.90
35804;DHT22;21924;51.934;7.414;2023-07-20T18:56:07;20.30;99.90
35804;DHT22;21924;51.934;7.414;2023-07-20T18:58:52;20.20;99.90
35804;DHT22;21924;51.934;7.414;2023-07-20T19:01:36;20.10;99.90
35804;DHT22;21924;51.934;7.414;2023-07-20T19:04:20;20.00;99.90
35804;DHT22;21924;51.934;7.414;2023-07-20T19:07:21;19.90;99.90
35804;DHT22;21924;51.934;7.414;2023-07-20T19:10:07;19.90;99.90
35804;DHT22;21924;51.934;7.414;2023-07-20T19:12:53;19.80;99.90
35804;DHT22;21924;51.934;7.414;2023-07-20T19:16:01;19.70;99.90
35804;DHT22;21924;51.934;7.414;2023-07-20T19:19:05;19.80;99.90
35804;DHT22;21924;51.934;7.414;2023-07-20T19:21:50;19.80;99.90
35804;DHT22;21924;51.934;7.414;2023-07-20T19:24:34;19.80;99.90
35804;DHT22;21924;51.934;7.414;2023-07-20T19:27:18;19.70;99.90
35804;DHT22;21924;51.934;7.414;2023-07-20T19:30:03;19.70;99.90
35804;DHT22;21924;51.934;7.414;2023-07-20T19:32:47;19.70;99.90
35804;DHT22;21924;51.934;7.414;2023-07-20T19:35:32;19.70;99.90
35804;DHT22;21924;51.934;7.414;2023-07-20T19:38:26;19.60;99.90
35804;DHT22;21924;51.934;7.414;2023-07-20T19:41:16;19.60;99.90
35804;DHT22;21924;51.934;7.414;2023-07-20T19:44:01;19.70;99.90
35804;DHT22;21924;51.934;7.414;2023-07-20T19:47:03;19.50;99.90
35804;DHT22;21924;51.934;7.414;2023-07-20T19:49:48;19.50;99.90
35804;DHT22;21924;51.934;7.414;2023-07-20T19:52:38;19.50;99.90
35804;DHT22;21924;51.934;7.414;2023-07-20T19:55:25;19.40;99.90
35804;DHT22;21924;51.934;7.414;2023-07-20T19:58:12;19.50;99.90
35804;DHT22;21924;51.934;7.414;2023-07-20T20:00:59;19.40;99.90
35804;DHT22;21924;51.934;7.414;2023-07-20T20:03:48;19.40;99.90
35804;DHT22;21924;51.934;7.414;2023-07-20T20:06:48;19.40;99.90
35804;DHT22;21924;51.934;7.414;2023-07-20T20:09:53;19.40;99.90
35804;DHT22;21924;51.934;7.414;2023-07-20T20:12:39;19.40;99.90
35804;DHT22;21924;51.934;7.414;2023-07-20T20:15:30;19.40;99.90
35804;DHT22;21924;51.934;7.414;2023-07-20T20:18:14;19.50;99.90
35804;DHT22;21924;51.934;7.414;2023-07-20T20:21:00;19.30;99.90
35804;DHT22;21924;51.934;7.414;2023-07-20T20:23:51;19.30;99.90
35804;DHT22;21924;51.934;7.414;2023-07-20T20:26:35;19.30;99.90
35804;DHT22;21924;51.934;7.414;2023-07-20T20:29:23;19.20;99.90
35804;DHT22;21924;51.934;7.414;2023-07-20T20:32:07;19.20;99.90
35804;DHT22;21924;51.934;7.414;2023-07-20T20:34:56;19.20;99.90
35804;DHT22;21924;51.934;7.414;2023-07-20T20:38:07;19.10;99.90
35804;DHT22;21924;51.934;7.414;2023-07-20T20:44:43;19.50;99.90
35804;DHT22;21924;51.934;7.414;2023-07-20T20:47:56;19.00;99.90
35804;DHT22;21924;51.934;7.414;2023-07-20T21:16:56;18.80;99.90
35804;DHT22;21924;51.934;7.414;2023-07-20T21:27:08;18.60;99.90
35804;DHT22;21924;51.934;7.414;2023-07-20T21:37:18;18.50;99.90
35804;DHT22;21924;51.934;7.414;2023-07-20T21:40:12;18.30;99.90
35804;DHT22;21924;51.934;7.414;2023-07-20T21:42:57;18.30;99.90
35804;DHT22;21924;51.934;7.414;2023-07-20T21:49:52;18.20;99.90
35804;DHT22;21924;51.934;7.414;2023-07-20T21:52:36;18.10;99.90
35804;DHT22;21924;51.934;7.414;2023-07-20T21:55:48;18.10;99.90
35804;DHT22;21924;51.934;7.414;2023-07-20T22:16:43;17.60;99.90
35804;DHT22;21924;51.934;7.414;2023-07-20T22:19:43;17.60;99.90
35804;DHT22;21924;51.934;7.414;2023-07-20T22:29:59;17.60;99.90
35804;DHT22;21924;51.934;7.414;2023-07-20T22:47:29;17.60;99.90
35804;DHT22;21924;51.934;7.414;2023-07-20T22:56:01;17.50;99.90
35804;DHT22;21924;51.934;7.414;2023-07-20T23:10:04;17.50;99.90
35804;DHT22;21924;51.934;7.414;2023-07-20T23:17:06;17.40;99.90
35804;DHT22;21924;51.934;7.414;2023-07-20T23:31:04;17.40;99.90
35804;DHT22;21924;51.934;7.414;2023-07-20T23:34:04;17.30;99.90
35804;DHT22;21924;51.934;7.414;2023-07-20T23:37:04;17.30;99.90
35804;DHT22;21924;51.934;7.414;2023-07-20T23:40:05;17.40;99.90
35804;DHT22;21924;51.934;7.414;2023-07-20T23:43:09;17.30;99.90
35804;DHT22;21924;51.934;7.414;2023-07-20T23:46:06;17.40;99.90
35804;DHT22;21924;51.934;7.414;2023-07-20T23:49:06;17.40;99.90
35804;DHT22;21924;51.934;7.414;2023-07-20T23:51:58;17.30;99.90
35804;DHT22;21924;51.934;7.414;2023-07-20T23:54:52;17.30;99.90
35804;DHT22;21924;51.934;7.414;2023-07-20T23:57:36;17.20;99.90
